createdAt,value
2022-08-17T00:00:02.755Z,72.88
2022-08-17T00:01:02.830Z,72.47
2022-08-17T00:02:07.606Z,72.27
2022-08-17T00:03:03.743Z,71.77
2022-08-17T00:04:02.738Z,71.47
2022-08-17T00:05:02.832Z,71.37
2022-08-17T00:06:02.729Z,72.07
2022-08-17T00:07:02.719Z,72.61
2022-08-17T00:08:02.729Z,71.91
2022-08-17T00:09:02.698Z,73.48
2022-08-17T00:10:02.696Z,73.42
2022-08-17T00:11:02.684Z,74.79
2022-08-17T00:12:03.909Z,74.02
2022-08-17T00:13:03.704Z,73.99
2022-08-17T00:14:03.671Z,73.99
2022-08-17T00:15:02.656Z,72.98
2022-08-17T00:16:02.660Z,73.48
2022-08-17T00:17:02.659Z,72.38
2022-08-17T00:18:02.651Z,73.99
2022-08-17T00:19:08.309Z,72.98
2022-08-17T00:20:03.660Z,73.22
2022-08-17T00:21:02.611Z,73.58
2022-08-17T00:22:34.266Z,72.58
2022-08-17T00:23:03.610Z,73.38
2022-08-17T00:24:02.590Z,73.62
2022-08-17T00:25:02.617Z,73.62
2022-08-17T00:26:02.591Z,73.42
2022-08-17T00:27:02.580Z,73.52
2022-08-17T00:28:02.571Z,74.22
2022-08-17T00:29:02.564Z,74.43
2022-08-17T00:30:02.562Z,73.92
2022-08-17T00:31:02.566Z,74.02
2022-08-17T00:33:14.307Z,72.31
2022-08-17T00:33:16.082Z,72.91
2022-08-17T00:34:03.522Z,73.22
2022-08-17T00:35:02.522Z,72.41
2022-08-17T00:36:02.530Z,74.02
2022-08-17T00:37:02.498Z,73.92
2022-08-17T00:38:02.497Z,74.66
2022-08-17T00:39:02.494Z,73.96
2022-08-17T00:40:02.557Z,72.54
2022-08-17T00:41:02.510Z,73.25
2022-08-17T00:42:02.462Z,73.25
2022-08-17T00:43:02.462Z,73.05
2022-08-17T00:44:02.458Z,74.26
2022-08-17T00:45:02.542Z,74.19
2022-08-17T00:46:02.439Z,74.56
2022-08-17T00:47:02.441Z,74.26
2022-08-17T00:48:02.433Z,74.69
2022-08-17T00:49:02.412Z,75.20
2022-08-17T00:50:02.414Z,75.10
2022-08-17T00:51:02.410Z,75.20
2022-08-17T00:52:02.397Z,75.31
2022-08-17T00:53:03.397Z,73.99
2022-08-17T00:54:02.369Z,74.19
2022-08-17T00:55:03.375Z,75.20
2022-08-17T00:56:02.371Z,74.19
2022-08-17T00:57:02.360Z,75.81
2022-08-17T00:58:02.351Z,76.01
2022-08-17T00:59:02.345Z,76.01
2022-08-17T01:00:03.765Z,75.81
2022-08-17T01:01:02.404Z,75.91
2022-08-17T01:02:02.325Z,75.71
2022-08-17T01:03:02.336Z,75.10
2022-08-17T01:04:02.311Z,74.80
2022-08-17T01:05:02.306Z,75.51
2022-08-17T01:06:02.310Z,76.11
2022-08-17T01:07:02.281Z,75.07
2022-08-17T01:08:02.281Z,76.01
2022-08-17T01:09:02.276Z,75.60
2022-08-17T01:10:02.262Z,75.84
2022-08-17T01:11:02.349Z,75.60
2022-08-17T01:12:02.253Z,76.62
2022-08-17T01:13:02.242Z,75.81
2022-08-17T01:14:02.248Z,75.71
2022-08-17T01:15:02.233Z,75.64
2022-08-17T01:16:02.216Z,76.55
2022-08-17T01:17:03.209Z,76.04
2022-08-17T01:18:02.200Z,76.55
2022-08-17T01:19:02.212Z,75.64
2022-08-17T01:20:02.190Z,76.31
2022-08-17T01:21:02.180Z,76.45
2022-08-17T01:22:02.180Z,77.06
2022-08-17T01:23:02.169Z,77.26
2022-08-17T01:24:02.246Z,76.45
2022-08-17T01:25:02.157Z,76.45
2022-08-17T01:26:02.157Z,76.62
2022-08-17T01:27:02.140Z,75.84
2022-08-17T01:28:02.136Z,73.99
2022-08-17T01:29:02.148Z,74.09
2022-08-17T01:30:02.164Z,74.60
2022-08-17T01:31:02.128Z,74.29
2022-08-17T01:32:02.108Z,73.72
2022-08-17T01:33:02.100Z,74.22
2022-08-17T01:34:02.084Z,76.45
2022-08-17T01:35:02.089Z,76.45
2022-08-17T01:36:02.093Z,75.74
2022-08-17T01:37:02.073Z,73.93
2022-08-17T01:38:02.068Z,74.53
2022-08-17T01:39:02.061Z,75.84
2022-08-17T01:40:02.143Z,75.64
2022-08-17T01:41:02.038Z,75.98
2022-08-17T01:42:02.049Z,75.88
2022-08-17T01:43:02.022Z,75.74
2022-08-17T01:44:02.019Z,76.45
2022-08-17T01:45:02.004Z,76.25
2022-08-17T01:46:03.288Z,75.54
2022-08-17T01:47:02.001Z,76.45
2022-08-17T01:48:01.993Z,76.25
2022-08-17T01:49:01.983Z,76.65
2022-08-17T01:50:01.980Z,76.95
2022-08-17T01:51:01.969Z,77.26
2022-08-17T01:52:01.950Z,77.36
2022-08-17T01:53:02.951Z,77.26
2022-08-17T01:54:01.986Z,77.56
2022-08-17T01:55:01.939Z,77.97
2022-08-17T01:56:01.935Z,77.56
2022-08-17T01:57:01.939Z,77.06
2022-08-17T01:58:02.206Z,77.56
2022-08-17T01:59:01.914Z,77.06
2022-08-17T02:00:01.906Z,76.55
2022-08-17T02:01:02.004Z,76.31
2022-08-17T02:02:01.910Z,76.62
2022-08-17T02:03:01.878Z,76.65
2022-08-17T02:04:02.060Z,76.45
2022-08-17T02:05:01.862Z,77.36
2022-08-17T02:06:01.863Z,77.46
2022-08-17T02:07:01.863Z,77.26
2022-08-17T02:08:01.846Z,76.55
2022-08-17T02:09:03.828Z,76.04
2022-08-17T02:10:01.821Z,76.51
2022-08-17T02:11:01.827Z,76.31
2022-08-17T02:12:38.124Z,76.25
2022-08-17T02:13:02.821Z,76.42
2022-08-17T02:14:02.922Z,76.35
2022-08-17T02:15:01.789Z,76.92
2022-08-17T02:16:01.774Z,76.01
2022-08-17T02:17:01.778Z,76.42
2022-08-17T02:18:01.782Z,76.04
2022-08-17T02:19:01.765Z,76.31
2022-08-17T02:20:01.756Z,75.40
2022-08-17T02:21:01.746Z,74.49
2022-08-17T02:22:01.738Z,75.20
2022-08-17T02:23:01.755Z,76.04
2022-08-17T02:24:01.721Z,75.31
2022-08-17T02:25:02.379Z,75.91
2022-08-17T02:26:02.706Z,75.84
2022-08-17T02:27:01.695Z,75.71
2022-08-17T02:28:02.713Z,76.55
2022-08-17T02:29:01.677Z,76.55
2022-08-17T02:30:01.695Z,76.48
2022-08-17T02:31:03.186Z,76.15
2022-08-17T02:32:02.657Z,76.28
2022-08-17T02:33:04.157Z,76.65
2022-08-17T02:34:03.597Z,76.45
2022-08-17T02:35:01.639Z,75.95
2022-08-17T02:36:02.635Z,75.95
2022-08-17T02:37:01.629Z,75.74
2022-08-17T02:38:01.612Z,75.34
2022-08-17T02:39:01.636Z,74.43
2022-08-17T02:40:01.651Z,74.87
2022-08-17T02:41:01.608Z,74.46
2022-08-17T02:42:01.586Z,74.26
2022-08-17T02:43:01.589Z,75.37
2022-08-17T02:44:01.579Z,75.48
2022-08-17T02:45:01.591Z,75.57
2022-08-17T02:46:01.568Z,75.31
2022-08-17T02:47:01.565Z,76.52
2022-08-17T02:48:01.544Z,76.82
2022-08-17T02:49:01.546Z,75.71
2022-08-17T02:50:01.547Z,75.61
2022-08-17T02:51:01.532Z,75.92
2022-08-17T02:52:01.531Z,76.12
2022-08-17T02:53:02.860Z,77.53
2022-08-17T02:54:38.951Z,77.47
2022-08-17T02:55:02.508Z,77.64
2022-08-17T02:56:01.483Z,77.94
2022-08-17T02:57:01.508Z,78.55
2022-08-17T02:58:01.494Z,77.73
2022-08-17T02:59:01.480Z,77.33
2022-08-17T03:00:01.459Z,77.53
2022-08-17T03:01:01.475Z,77.73
2022-08-17T03:02:01.564Z,77.43
2022-08-17T03:03:01.447Z,77.03
2022-08-17T03:04:01.438Z,76.48
2022-08-17T03:05:01.433Z,76.62
2022-08-17T03:06:01.429Z,76.62
2022-08-17T03:07:01.435Z,76.02
2022-08-17T03:08:01.408Z,76.62
2022-08-17T03:09:01.403Z,76.32
2022-08-17T03:10:01.391Z,77.17
2022-08-17T03:11:01.376Z,76.32
2022-08-17T03:12:01.382Z,76.52
2022-08-17T03:13:01.399Z,76.15
2022-08-17T03:14:01.366Z,76.46
2022-08-17T03:15:01.367Z,77.40
2022-08-17T03:16:01.364Z,77.20
2022-08-17T03:17:01.343Z,77.50
2022-08-17T03:18:01.354Z,77.40
2022-08-17T03:19:01.342Z,77.40
2022-08-17T03:20:01.324Z,77.00
2022-08-17T03:21:01.317Z,75.89
2022-08-17T03:22:01.314Z,77.61
2022-08-17T03:23:03.129Z,76.70
2022-08-17T03:24:01.303Z,77.50
2022-08-17T03:25:02.285Z,77.30
2022-08-17T03:26:01.294Z,76.90
2022-08-17T03:27:01.271Z,77.50
2022-08-17T03:28:01.271Z,77.34
2022-08-17T03:29:01.268Z,77.71
2022-08-17T03:30:01.255Z,78.01
2022-08-17T03:31:01.268Z,78.01
2022-08-17T03:32:01.243Z,78.75
2022-08-17T03:33:01.227Z,78.66
2022-08-17T03:34:01.231Z,79.97
2022-08-17T03:35:01.229Z,79.26
2022-08-17T03:36:01.235Z,79.16
2022-08-17T03:37:01.206Z,79.97
2022-08-17T03:38:01.401Z,79.97
2022-08-17T03:39:01.194Z,80.88
2022-08-17T03:40:01.222Z,79.36
2022-08-17T03:41:02.201Z,80.07
2022-08-17T03:42:01.176Z,80.27
2022-08-17T03:43:01.167Z,80.88
2022-08-17T03:44:01.161Z,80.58
2022-08-17T03:45:01.158Z,81.09
2022-08-17T03:46:01.156Z,81.69
2022-08-17T03:47:01.142Z,80.27
2022-08-17T03:48:01.119Z,80.47
2022-08-17T03:49:01.124Z,79.83
2022-08-17T03:50:01.107Z,80.47
2022-08-17T03:51:01.114Z,81.09
2022-08-17T03:52:01.151Z,80.88
2022-08-17T03:53:01.100Z,80.47
2022-08-17T03:54:01.089Z,80.78
2022-08-17T03:55:01.088Z,79.83
2022-08-17T03:56:01.071Z,80.64
2022-08-17T03:57:01.071Z,80.27
2022-08-17T03:58:01.059Z,80.24
2022-08-17T03:59:01.055Z,80.64
2022-08-17T04:00:01.040Z,79.73
2022-08-17T04:01:01.128Z,78.11
2022-08-17T04:02:01.030Z,77.81
2022-08-17T04:03:01.028Z,78.21
2022-08-17T04:04:01.012Z,78.11
2022-08-17T04:05:01.010Z,78.42
2022-08-17T04:06:01.005Z,79.39
2022-08-17T04:07:00.992Z,78.48
2022-08-17T04:08:00.994Z,77.87
2022-08-17T04:09:00.987Z,77.47
2022-08-17T04:10:00.978Z,78.68
2022-08-17T04:11:00.962Z,78.38
2022-08-17T04:12:02.325Z,78.99
2022-08-17T04:13:00.956Z,78.38
2022-08-17T04:14:00.963Z,78.88
2022-08-17T04:15:00.936Z,77.67
2022-08-17T04:16:00.914Z,78.99
2022-08-17T04:17:00.928Z,79.19
2022-08-17T04:18:00.912Z,79.79
2022-08-17T04:19:00.904Z,80.54
2022-08-17T04:20:00.902Z,80.44
2022-08-17T04:21:00.883Z,80.44
2022-08-17T04:22:00.907Z,80.40
2022-08-17T04:23:00.879Z,80.30
2022-08-17T04:24:00.855Z,80.40
2022-08-17T04:25:00.886Z,79.33
2022-08-17T04:26:00.848Z,79.33
2022-08-17T04:27:00.847Z,79.63
2022-08-17T04:28:00.843Z,79.13
2022-08-17T04:29:00.827Z,78.48
2022-08-17T04:30:00.847Z,78.17
2022-08-17T04:31:00.815Z,78.48
2022-08-17T04:32:00.811Z,78.58
2022-08-17T04:33:06.271Z,78.28
2022-08-17T04:34:01.792Z,78.72
2022-08-17T04:35:00.787Z,79.02
2022-08-17T04:36:00.787Z,78.78
2022-08-17T04:37:00.767Z,78.68
2022-08-17T04:38:00.763Z,78.48
2022-08-17T04:39:00.743Z,78.28
2022-08-17T04:40:03.822Z,78.11
2022-08-17T04:41:01.755Z,77.67
2022-08-17T04:42:00.728Z,77.67
2022-08-17T04:43:01.047Z,77.77
2022-08-17T04:44:00.710Z,77.97
2022-08-17T04:45:00.707Z,77.94
2022-08-17T04:46:00.710Z,77.57
2022-08-17T04:47:00.690Z,77.67
2022-08-17T04:48:00.692Z,77.67
2022-08-17T04:49:00.678Z,77.73
2022-08-17T04:50:00.672Z,77.57
2022-08-17T04:51:00.687Z,77.33
2022-08-17T04:52:04.351Z,77.47
2022-08-17T04:53:01.878Z,77.43
2022-08-17T04:54:00.638Z,78.24
2022-08-17T04:55:00.627Z,78.24
2022-08-17T04:56:00.642Z,78.95
2022-08-17T04:57:00.614Z,78.75
2022-08-17T04:58:00.611Z,78.44
2022-08-17T04:59:00.603Z,78.00
2022-08-17T05:00:00.591Z,77.60
2022-08-17T05:01:00.641Z,78.00
2022-08-17T05:02:00.607Z,78.30
2022-08-17T05:03:00.567Z,78.20
2022-08-17T05:04:00.563Z,78.47
2022-08-17T05:05:00.555Z,77.97
2022-08-17T05:06:00.555Z,77.56
2022-08-17T05:07:00.553Z,77.83
2022-08-17T05:08:00.533Z,77.83
2022-08-17T05:09:00.527Z,78.23
2022-08-17T05:10:00.515Z,78.03
2022-08-17T05:11:00.522Z,77.93
2022-08-17T05:12:00.526Z,77.39
2022-08-17T05:13:00.503Z,77.39
2022-08-17T05:14:00.494Z,76.78
2022-08-17T05:15:00.486Z,77.15
2022-08-17T05:16:00.474Z,76.75
2022-08-17T05:17:00.470Z,76.75
2022-08-17T05:18:00.492Z,75.94
2022-08-17T05:19:00.454Z,75.80
2022-08-17T05:20:00.451Z,76.34
2022-08-17T05:21:00.443Z,76.20
2022-08-17T05:22:00.431Z,75.90
2022-08-17T05:23:00.434Z,76.20
2022-08-17T05:24:00.442Z,76.31
2022-08-17T05:25:02.657Z,76.20
2022-08-17T05:26:00.406Z,75.90
2022-08-17T05:27:06.063Z,76.20
2022-08-17T05:28:02.391Z,76.00
2022-08-17T05:29:02.665Z,75.80
2022-08-17T05:30:00.374Z,76.20
2022-08-17T05:31:00.367Z,75.96
2022-08-17T05:32:00.363Z,76.31
2022-08-17T05:33:01.360Z,76.17
2022-08-17T05:34:00.372Z,76.27
2022-08-17T05:35:00.611Z,76.17
2022-08-17T05:36:00.355Z,76.37
2022-08-17T05:37:00.326Z,76.27
2022-08-17T05:38:00.323Z,76.07
2022-08-17T05:39:00.310Z,76.17
2022-08-17T05:40:00.420Z,75.83
2022-08-17T05:41:00.310Z,76.07
2022-08-17T05:42:00.295Z,76.03
2022-08-17T05:43:00.283Z,76.54
2022-08-17T05:44:00.294Z,76.14
2022-08-17T05:45:01.274Z,76.14
2022-08-17T05:46:00.264Z,76.03
2022-08-17T05:47:00.259Z,77.28
2022-08-17T05:48:00.242Z,77.17
2022-08-17T05:49:00.246Z,76.94
2022-08-17T05:50:00.238Z,77.14
2022-08-17T05:51:00.229Z,76.94
2022-08-17T05:52:00.235Z,76.84
2022-08-17T05:53:00.214Z,77.24
2022-08-17T05:54:00.211Z,77.55
2022-08-17T05:55:00.203Z,77.88
2022-08-17T05:56:00.187Z,77.78
2022-08-17T05:57:01.218Z,78.19
2022-08-17T05:58:00.253Z,78.28
2022-08-17T05:59:00.258Z,78.15
2022-08-17T06:00:00.208Z,78.05
2022-08-17T06:01:00.214Z,77.55
2022-08-17T06:02:00.167Z,77.55
2022-08-17T06:03:00.166Z,77.75
2022-08-17T06:04:00.147Z,77.34
2022-08-17T06:05:00.146Z,77.24
2022-08-17T06:06:00.137Z,76.50
2022-08-17T06:07:00.135Z,76.26
2022-08-17T06:08:00.141Z,76.67
2022-08-17T06:09:00.118Z,76.06
2022-08-17T06:10:00.121Z,75.72
2022-08-17T06:11:00.105Z,75.42
2022-08-17T06:12:00.144Z,75.59
2022-08-17T06:13:00.101Z,75.38
2022-08-17T06:14:00.101Z,75.09
2022-08-17T06:15:00.077Z,75.68
2022-08-17T06:16:00.061Z,75.35
2022-08-17T06:17:00.059Z,74.85
2022-08-17T06:18:00.073Z,74.74
2022-08-17T06:19:00.038Z,74.81
2022-08-17T06:20:00.039Z,75.68
2022-08-17T06:21:00.037Z,75.98
2022-08-17T06:22:00.021Z,75.78
2022-08-17T06:23:00.045Z,73.13
2022-08-17T06:24:00.031Z,74.71
2022-08-17T06:25:00.005Z,74.60
2022-08-17T06:26:00.003Z,72.47
2022-08-17T06:26:59.990Z,72.66
2022-08-17T06:28:00.004Z,72.80
2022-08-17T06:28:59.989Z,72.30
2022-08-17T06:29:59.970Z,71.06
2022-08-17T06:31:01.407Z,71.36
2022-08-17T06:31:59.963Z,70.12
2022-08-17T06:32:59.964Z,70.79
2022-08-17T06:33:59.948Z,70.09
2022-08-17T06:34:59.940Z,68.46
2022-08-17T06:35:59.937Z,67.03
2022-08-17T06:36:59.928Z,66.53
2022-08-17T06:37:59.941Z,66.53
2022-08-17T06:38:59.913Z,65.43
2022-08-17T06:39:59.965Z,66.53
2022-08-17T06:41:00.027Z,66.23
2022-08-17T06:41:59.888Z,66.33
2022-08-17T06:43:06.768Z,65.03
2022-08-17T06:44:00.889Z,64.96
2022-08-17T06:44:59.877Z,65.76
2022-08-17T06:45:59.872Z,66.89
2022-08-17T06:46:59.869Z,66.99
2022-08-17T06:47:59.879Z,67.13
2022-08-17T06:48:59.845Z,67.32
2022-08-17T06:49:59.841Z,67.13
2022-08-17T06:50:59.862Z,66.89
2022-08-17T06:51:59.821Z,67.09
2022-08-17T06:53:00.089Z,66.89
2022-08-17T06:53:59.818Z,67.06
2022-08-17T06:54:59.813Z,66.99
2022-08-17T06:55:59.809Z,66.46
2022-08-17T06:56:59.812Z,67.06
2022-08-17T06:57:59.795Z,66.66
2022-08-17T06:58:59.786Z,66.53
2022-08-17T06:59:59.784Z,66.73
2022-08-17T07:00:59.906Z,66.60
2022-08-17T07:01:59.791Z,66.39
2022-08-17T07:02:59.787Z,65.56
2022-08-17T07:03:59.756Z,64.67
2022-08-17T07:05:00.745Z,64.54
2022-08-17T07:05:59.736Z,64.74
2022-08-17T07:06:59.728Z,64.64
2022-08-17T07:07:59.745Z,64.64
2022-08-17T07:08:59.961Z,63.54
2022-08-17T07:09:59.709Z,64.04
2022-08-17T07:10:59.692Z,63.81
2022-08-17T07:12:00.689Z,64.11
2022-08-17T07:12:59.685Z,63.41
2022-08-17T07:13:59.688Z,63.51
2022-08-17T07:14:59.675Z,63.01
2022-08-17T07:15:59.661Z,63.21
2022-08-17T07:16:59.660Z,63.11
2022-08-17T07:17:59.974Z,63.41
2022-08-17T07:18:59.642Z,63.51
2022-08-17T07:19:59.632Z,63.71
2022-08-17T07:20:59.625Z,63.41
2022-08-17T07:21:59.610Z,63.51
2022-08-17T07:23:00.604Z,63.18
2022-08-17T07:23:59.609Z,63.61
2022-08-17T07:24:59.597Z,63.71
2022-08-17T07:25:59.588Z,64.01
2022-08-17T07:26:59.585Z,63.38
2022-08-17T07:27:59.590Z,63.61
2022-08-17T07:28:59.585Z,63.88
2022-08-17T07:29:59.561Z,63.35
2022-08-17T07:30:59.557Z,63.45
2022-08-17T07:31:59.544Z,62.26
2022-08-17T07:32:59.547Z,62.72
2022-08-17T07:33:59.540Z,62.23
2022-08-17T07:34:59.540Z,62.82
2022-08-17T07:35:59.521Z,63.42
2022-08-17T07:36:59.500Z,62.82
2022-08-17T07:37:59.499Z,61.60
2022-08-17T07:38:59.500Z,61.33
2022-08-17T07:40:15.132Z,62.42
2022-08-17T07:41:00.488Z,62.42
2022-08-17T07:41:59.491Z,62.40
2022-08-17T07:42:59.472Z,62.49
2022-08-17T07:43:59.485Z,61.90
2022-08-17T07:44:59.508Z,61.17
2022-08-17T07:45:59.465Z,60.44
2022-08-17T07:46:59.448Z,61.74
2022-08-17T07:47:59.457Z,61.11
2022-08-17T07:48:59.460Z,60.02
2022-08-17T07:49:59.425Z,58.80
2022-08-17T07:50:59.425Z,59.59
2022-08-17T07:51:59.973Z,59.89
2022-08-17T07:53:00.410Z,59.07
2022-08-17T07:54:13.210Z,58.57
2022-08-17T07:55:01.392Z,59.17
2022-08-17T07:55:59.392Z,59.17
2022-08-17T07:56:59.392Z,59.04
2022-08-17T07:57:59.382Z,58.34
2022-08-17T07:58:59.364Z,57.42
2022-08-17T07:59:59.364Z,57.62
2022-08-17T08:00:59.343Z,57.79
2022-08-17T08:01:59.374Z,57.17
2022-08-17T08:02:59.340Z,56.68
2022-08-17T08:03:59.326Z,57.24
2022-08-17T08:05:00.973Z,56.05
2022-08-17T08:06:00.331Z,55.63
2022-08-17T08:06:59.305Z,55.93
2022-08-17T08:07:59.325Z,55.04
2022-08-17T08:08:59.300Z,54.74
2022-08-17T08:09:59.280Z,54.61
2022-08-17T08:11:00.292Z,54.52
2022-08-17T08:11:59.280Z,54.81
2022-08-17T08:12:59.283Z,53.60
2022-08-17T08:13:59.331Z,52.19
2022-08-17T08:14:59.261Z,52.78
2022-08-17T08:15:59.255Z,52.76
2022-08-17T08:16:59.249Z,51.84
2022-08-17T08:17:59.228Z,52.14
2022-08-17T08:18:59.243Z,51.15
2022-08-17T08:19:59.227Z,52.24
2022-08-17T08:20:59.240Z,52.41
2022-08-17T08:21:59.225Z,51.32
2022-08-17T08:22:59.200Z,50.90
2022-08-17T08:23:59.204Z,50.21
2022-08-17T08:24:59.200Z,49.30
2022-08-17T08:25:59.196Z,49.30
2022-08-17T08:26:59.179Z,48.59
2022-08-17T08:27:59.341Z,49.10
2022-08-17T08:28:59.159Z,50.07
2022-08-17T08:29:59.178Z,49.06
2022-08-17T08:30:59.171Z,47.75
2022-08-17T08:31:59.156Z,48.14
2022-08-17T08:32:59.144Z,48.25
2022-08-17T08:34:00.141Z,47.97
2022-08-17T08:35:02.247Z,47.48
2022-08-17T08:35:59.131Z,48.57
2022-08-17T08:37:16.409Z,48.10
2022-08-17T08:38:00.104Z,48.59
2022-08-17T08:38:59.126Z,49.48
2022-08-17T08:39:59.172Z,48.59
2022-08-17T08:40:59.100Z,47.68
2022-08-17T08:41:59.089Z,48.52
2022-08-17T08:42:59.108Z,47.92
2022-08-17T08:43:59.164Z,46.67
2022-08-17T08:45:04.761Z,47.66
2022-08-17T08:45:59.057Z,47.12
2022-08-17T08:46:59.060Z,45.72
2022-08-17T08:48:02.402Z,44.69
2022-08-17T08:49:14.612Z,44.16
2022-08-17T08:50:03.859Z,42.65
2022-08-17T08:51:00.043Z,41.94
2022-08-17T08:51:59.019Z,41.96
2022-08-17T08:52:59.035Z,42.94
2022-08-17T08:53:59.029Z,41.82
2022-08-17T08:54:59.008Z,41.97
2022-08-17T08:55:59.020Z,40.00
2022-08-17T08:57:23.125Z,38.92
2022-08-17T08:58:00.986Z,39.69
2022-08-17T08:58:58.986Z,38.48
2022-08-17T08:59:58.980Z,38.53
2022-08-17T09:00:59.046Z,37.29
2022-08-17T09:01:58.965Z,36.10
2022-08-17T09:02:58.957Z,36.08
2022-08-17T09:04:17.869Z,35.34
2022-08-17T09:05:16.100Z,35.44
2022-08-17T09:06:00.941Z,36.14
2022-08-17T09:06:58.932Z,35.71
2022-08-17T09:07:58.923Z,34.82
2022-08-17T09:08:58.923Z,34.59
2022-08-17T09:09:59.545Z,33.90
2022-08-17T09:10:59.924Z,33.99
2022-08-17T09:12:01.886Z,33.61
2022-08-17T09:12:58.894Z,33.61
2022-08-17T09:13:58.895Z,33.69
2022-08-17T09:14:58.885Z,33.80
2022-08-17T09:15:58.887Z,33.91
2022-08-17T09:16:58.891Z,33.80
2022-08-17T09:18:28.390Z,34.05
2022-08-17T09:19:04.455Z,35.39
2022-08-17T09:19:58.856Z,35.78
2022-08-17T09:20:58.875Z,35.78
2022-08-17T09:21:58.855Z,37.30
2022-08-17T09:22:58.867Z,38.01
2022-08-17T09:23:58.843Z,37.89
2022-08-17T09:24:58.831Z,38.28
2022-08-17T09:25:58.819Z,37.70
2022-08-17T09:26:58.842Z,38.34
2022-08-17T09:28:00.718Z,37.27
2022-08-17T09:28:58.804Z,37.43
2022-08-17T09:29:58.811Z,37.54
2022-08-17T09:30:58.800Z,37.70
2022-08-17T09:31:58.779Z,36.78
2022-08-17T09:32:58.802Z,35.75
2022-08-17T09:33:58.779Z,35.06
2022-08-17T09:34:58.776Z,34.68
2022-08-17T09:35:58.767Z,36.06
2022-08-17T09:36:58.764Z,36.19
2022-08-17T09:37:59.763Z,36.98
2022-08-17T09:38:58.758Z,36.57
2022-08-17T09:39:58.811Z,35.96
2022-08-17T09:40:58.746Z,35.53
2022-08-17T09:41:58.735Z,36.29
2022-08-17T09:42:58.733Z,34.59
2022-08-17T09:43:58.723Z,34.86
2022-08-17T09:44:58.736Z,33.67
2022-08-17T09:45:58.719Z,34.09
2022-08-17T09:46:58.730Z,34.81
2022-08-17T09:47:58.703Z,35.88
2022-08-17T09:48:58.708Z,36.00
2022-08-17T09:49:58.728Z,36.11
2022-08-17T09:51:04.818Z,36.43
2022-08-17T09:51:58.690Z,36.04
2022-08-17T09:52:58.683Z,35.63
2022-08-17T09:54:14.808Z,35.55
2022-08-17T09:55:00.699Z,36.52
2022-08-17T09:55:58.671Z,35.78
2022-08-17T09:57:25.837Z,34.69
2022-08-17T09:58:00.655Z,33.23
2022-08-17T09:58:58.652Z,35.12
2022-08-17T09:59:58.657Z,35.74
2022-08-17T10:00:58.674Z,35.60
2022-08-17T10:01:58.639Z,36.16
2022-08-17T10:02:58.643Z,36.15
2022-08-17T10:03:58.630Z,35.74
2022-08-17T10:04:58.619Z,36.02
2022-08-17T10:05:58.648Z,36.00
2022-08-17T10:06:58.623Z,35.80
2022-08-17T10:07:58.619Z,36.19
2022-08-17T10:08:58.600Z,36.00
2022-08-17T10:09:58.585Z,35.71
2022-08-17T10:10:59.590Z,35.22
2022-08-17T10:11:58.574Z,35.31
2022-08-17T10:12:58.599Z,35.59
2022-08-17T10:13:59.757Z,35.69
2022-08-17T10:14:58.566Z,34.09
2022-08-17T10:15:58.559Z,34.37
2022-08-17T10:16:58.556Z,33.73
2022-08-17T10:17:58.571Z,34.67
2022-08-17T10:18:58.550Z,35.77
2022-08-17T10:19:58.530Z,34.67
2022-08-17T10:20:58.535Z,34.73
2022-08-17T10:22:01.026Z,32.92
2022-08-17T10:22:58.566Z,31.73
2022-08-17T10:23:58.518Z,32.45
2022-08-17T10:25:20.956Z,33.70
2022-08-17T10:25:59.535Z,32.70
2022-08-17T10:26:58.511Z,32.70
2022-08-17T10:27:58.517Z,32.99
2022-08-17T10:28:58.542Z,31.95
2022-08-17T10:29:58.490Z,32.00
2022-08-17T10:31:23.274Z,31.48
2022-08-17T10:32:00.491Z,32.50
2022-08-17T10:32:58.475Z,32.34
2022-08-17T10:33:58.489Z,34.05
2022-08-17T10:34:58.467Z,33.67
2022-08-17T10:35:58.446Z,34.81
2022-08-17T10:36:58.455Z,37.59
2022-08-17T10:37:58.446Z,36.65
2022-08-17T10:38:58.442Z,37.29
2022-08-17T10:39:58.500Z,38.56
2022-08-17T10:40:58.432Z,39.27
2022-08-17T10:41:58.427Z,38.70
2022-08-17T10:42:58.426Z,39.48
2022-08-17T10:44:39.421Z,39.01
2022-08-17T10:44:59.427Z,40.29
2022-08-17T10:46:10.703Z,40.31
2022-08-17T10:46:59.393Z,40.29
2022-08-17T10:48:02.770Z,39.23
2022-08-17T10:49:00.393Z,40.23
2022-08-17T10:49:58.385Z,41.80
2022-08-17T10:50:58.382Z,41.29
2022-08-17T10:51:58.447Z,41.61
2022-08-17T10:52:58.354Z,41.14
2022-08-17T10:53:58.356Z,42.22
2022-08-17T10:54:58.954Z,41.53
2022-08-17T10:55:58.345Z,41.55
2022-08-17T10:56:58.350Z,41.75
2022-08-17T10:57:58.360Z,41.55
2022-08-17T10:58:58.326Z,40.27
2022-08-17T10:59:58.322Z,41.25
2022-08-17T11:00:58.409Z,40.56
2022-08-17T11:01:58.332Z,40.84
2022-08-17T11:02:58.301Z,39.95
2022-08-17T11:03:58.290Z,41.04
2022-08-17T11:04:58.282Z,40.43
2022-08-17T11:05:58.288Z,39.84
2022-08-17T11:06:58.321Z,39.23
2022-08-17T11:07:58.282Z,39.82
2022-08-17T11:08:58.269Z,40.01
2022-08-17T11:09:58.257Z,40.13
2022-08-17T11:10:58.245Z,39.94
2022-08-17T11:11:58.254Z,41.51
2022-08-17T11:12:58.239Z,41.31
2022-08-17T11:13:58.229Z,41.59
2022-08-17T11:14:58.221Z,40.43
2022-08-17T11:16:00.616Z,39.72
2022-08-17T11:16:58.209Z,39.94
2022-08-17T11:17:58.227Z,40.21
2022-08-17T11:18:58.201Z,39.94
2022-08-17T11:19:58.192Z,39.92
2022-08-17T11:20:58.173Z,40.61
2022-08-17T11:21:58.174Z,39.62
2022-08-17T11:22:58.170Z,40.61
2022-08-17T11:23:58.164Z,40.03
2022-08-17T11:24:58.166Z,40.43
2022-08-17T11:25:58.157Z,40.23
2022-08-17T11:26:58.175Z,40.33
2022-08-17T11:27:58.138Z,41.00
2022-08-17T11:28:58.141Z,41.11
2022-08-17T11:30:01.862Z,41.19
2022-08-17T11:30:59.175Z,41.00
2022-08-17T11:31:58.106Z,41.49
2022-08-17T11:32:58.116Z,41.39
2022-08-17T11:33:58.100Z,42.49
2022-08-17T11:34:58.093Z,42.30
2022-08-17T11:35:58.089Z,43.40
2022-08-17T11:36:58.084Z,43.40
2022-08-17T11:37:58.080Z,43.50
2022-08-17T11:38:58.077Z,43.70
2022-08-17T11:39:58.122Z,43.32
2022-08-17T11:40:58.052Z,43.91
2022-08-17T11:41:58.036Z,42.63
2022-08-17T11:42:58.059Z,44.11
2022-08-17T11:43:58.035Z,44.11
2022-08-17T11:44:58.033Z,44.03
2022-08-17T11:45:58.024Z,44.15
2022-08-17T11:46:58.020Z,44.65
2022-08-17T11:48:26.048Z,44.25
2022-08-17T11:49:00.005Z,45.21
2022-08-17T11:49:58.001Z,46.20
2022-08-17T11:50:57.980Z,45.71
2022-08-17T11:51:57.989Z,45.93
2022-08-17T11:52:57.996Z,44.94
2022-08-17T11:54:21.480Z,46.03
2022-08-17T11:55:17.560Z,45.93
2022-08-17T11:55:59.962Z,44.06
2022-08-17T11:56:57.946Z,45.26
2022-08-17T11:57:57.949Z,44.76
2022-08-17T11:58:57.956Z,43.68
2022-08-17T11:59:58.638Z,43.68
2022-08-17T12:00:57.931Z,44.47
2022-08-17T12:01:57.924Z,42.61
2022-08-17T12:02:57.908Z,44.20
2022-08-17T12:03:57.918Z,42.93
2022-08-17T12:04:57.912Z,43.92
2022-08-17T12:05:57.898Z,43.13
2022-08-17T12:06:57.907Z,42.74
2022-08-17T12:07:57.888Z,43.43
2022-08-17T12:08:57.899Z,43.13
2022-08-17T12:09:57.876Z,44.22
2022-08-17T12:10:57.873Z,43.92
2022-08-17T12:12:12.763Z,43.92
2022-08-17T12:12:58.859Z,44.22
2022-08-17T12:13:57.862Z,44.12
2022-08-17T12:15:10.253Z,44.02
2022-08-17T12:15:59.838Z,43.23
2022-08-17T12:16:57.830Z,42.44
2022-08-17T12:17:58.221Z,43.31
2022-08-17T12:18:57.818Z,44.71
2022-08-17T12:19:57.827Z,44.71
2022-08-17T12:20:57.794Z,45.30
2022-08-17T12:21:57.816Z,45.70
2022-08-17T12:22:57.797Z,46.01
2022-08-17T12:23:57.804Z,46.22
2022-08-17T12:24:57.782Z,46.01
2022-08-17T12:25:57.769Z,47.40
2022-08-17T12:26:57.767Z,46.81
2022-08-17T12:28:06.352Z,47.00
2022-08-17T12:28:58.766Z,47.38
2022-08-17T12:29:57.742Z,47.28
2022-08-17T12:30:57.735Z,47.57
2022-08-17T12:31:57.743Z,47.08
2022-08-17T12:32:57.722Z,46.78
2022-08-17T12:33:57.716Z,46.19
2022-08-17T12:34:57.703Z,45.50
2022-08-17T12:35:59.635Z,46.29
2022-08-17T12:36:58.859Z,47.08
2022-08-17T12:37:57.691Z,46.69
2022-08-17T12:38:57.704Z,47.18
2022-08-17T12:39:57.749Z,47.38
2022-08-17T12:40:58.028Z,47.28
2022-08-17T12:42:02.164Z,46.39
2022-08-17T12:42:59.648Z,47.00
2022-08-17T12:43:57.667Z,47.28
2022-08-17T12:44:57.646Z,46.29
2022-08-17T12:45:57.637Z,45.89
2022-08-17T12:46:57.616Z,45.70
2022-08-17T12:47:57.614Z,46.09
2022-08-17T12:48:59.959Z,45.79
2022-08-17T12:49:57.603Z,45.30
2022-08-17T12:50:57.596Z,45.40
2022-08-17T12:51:57.589Z,44.59